Time;durP1;ratioP1;P1;durP2;ratioP2;P2;SDS_P1;SDS_P2;PMS_P1;PMS_P2;Temp;Humidity;BMP_temperature;BMP_pressure;BME280_temperature;BME280_humidity;BME280_pressure;Samples;Min_cycle;Max_cycle;Signal;HPM_P1;HPM_P2
2023/05/24 00:02:16;;;;;;;5.17;2.00;;;19.20;75.30;;;;;;5058353;28;20768;-83
2023/05/24 00:04:48;;;;;;;5.63;1.87;;;19.10;75.20;;;;;;5058095;28;20410;-84
2023/05/24 00:07:15;;;;;;;3.50;2.10;;;19.10;75.10;;;;;;5025571;28;20413;-83
2023/05/24 00:09:43;;;;;;;7.43;1.93;;;19.10;75.00;;;;;;5058357;28;20519;-84
2023/05/24 00:12:12;;;;;;;7.50;2.30;;;19.10;75.00;;;;;;5058568;28;20520;-83
2023/05/24 00:14:40;;;;;;;4.63;2.33;;;19.10;75.10;;;;;;5058665;28;20422;-84
2023/05/24 00:17:06;;;;;;;7.67;2.40;;;19.00;75.10;;;;;;5058463;28;20431;-84
2023/05/24 00:19:31;;;;;;;6.13;2.10;;;19.00;75.00;;;;;;5058259;28;20414;-83
2023/05/24 00:22:00;;;;;;;5.70;1.97;;;19.00;74.90;;;;;;5058164;28;20686;-83
2023/05/24 00:24:25;;;;;;;5.50;2.13;;;19.00;74.90;;;;;;5058204;28;20219;-84
2023/05/24 00:26:54;;;;;;;6.60;2.00;;;19.00;75.00;;;;;;5058682;28;20423;-84
2023/05/24 00:29:20;;;;;;;6.27;2.43;;;19.00;75.00;;;;;;5058567;28;20866;-84
2023/05/24 00:31:48;;;;;;;5.30;1.90;;;18.90;74.90;;;;;;5041773;28;20179;-83
2023/05/24 00:34:14;;;;;;;6.33;2.30;;;18.90;74.80;;;;;;5075506;28;20866;-83
2023/05/24 00:36:40;;;;;;;4.33;1.80;;;18.90;74.90;;;;;;5041915;28;20453;-83
2023/05/24 00:39:12;;;;;;;5.40;2.00;;;18.90;74.90;;;;;;5042549;28;20514;-84
2023/05/24 00:41:38;;;;;;;6.20;2.10;;;18.90;74.90;;;;;;5041301;28;20761;-83
2023/05/24 00:44:05;;;;;;;4.40;2.50;;;18.90;75.00;;;;;;5058208;28;20434;-83
2023/05/24 00:46:32;;;;;;;5.10;2.43;;;18.90;75.10;;;;;;5075459;28;20970;-84
2023/05/24 00:49:00;;;;;;;6.47;2.00;;;18.90;75.10;;;;;;5024474;28;20470;-84
2023/05/24 00:51:32;;;;;;;7.40;2.00;;;18.80;74.90;;;;;;5075180;28;20409;-83
2023/05/24 00:54:00;;;;;;;2.37;1.43;;;18.80;75.00;;;;;;5041723;28;20450;-84
2023/05/24 00:56:32;;;;;;;5.10;2.40;;;18.80;75.00;;;;;;5057906;28;20441;-83
2023/05/24 00:59:01;;;;;;;4.47;2.20;;;18.80;75.00;;;;;;5057613;28;20723;-83
2023/05/24 01:01:29;;;;;;;4.60;2.30;;;18.80;75.00;;;;;;5041006;28;20464;-84
2023/05/24 01:03:58;;;;;;;4.43;2.00;;;18.70;74.90;;;;;;5057580;28;20439;-83
2023/05/24 01:06:27;;;;;;;5.00;1.97;;;18.70;75.00;;;;;;5074324;28;20420;-84
2023/05/24 01:09:18;;;;;;;3.30;2.07;;;18.70;75.10;;;;;;5057385;28;20406;-83
2023/05/24 01:12:08;;;;;;;5.33;1.90;;;18.70;75.10;;;;;;5040901;28;20388;-83
2023/05/24 01:14:52;;;;;;;7.40;2.47;;;18.70;75.30;;;;;;5040637;28;20430;-84
2023/05/24 01:17:25;;;;;;;4.40;2.30;;;18.60;75.30;;;;;;5057317;28;20402;-83
2023/05/24 01:19:58;;;;;;;5.60;2.17;;;18.60;75.40;;;;;;5057275;28;20460;-83
2023/05/24 01:22:55;;;;;;;9.70;2.83;;;18.60;75.40;;;;;;5040787;28;20437;-84
2023/05/24 01:26:12;;;;;;;2.83;1.80;;;18.60;75.40;;;;;;5040814;28;20417;-84
2023/05/24 01:28:40;;;;;;;5.43;2.40;;;18.60;75.40;;;;;;4997837;28;20441;-84
2023/05/24 01:31:07;;;;;;;6.03;2.37;;;18.50;75.30;;;;;;5057168;28;20417;-83
2023/05/24 01:33:33;;;;;;;6.73;2.17;;;18.50;75.40;;;;;;5057074;28;20783;-84
2023/05/24 01:35:59;;;;;;;5.00;2.30;;;18.50;75.30;;;;;;5040907;28;20420;-84
2023/05/24 01:38:24;;;;;;;4.47;2.13;;;18.50;75.40;;;;;;5073949;28;20413;-82
2023/05/24 01:41:00;;;;;;;5.10;2.57;;;18.50;75.40;;;;;;5040794;28;20194;-83
2023/05/24 01:43:32;;;;;;;5.90;2.23;;;18.50;75.40;;;;;;5057141;28;20463;-84
2023/05/24 01:46:09;;;;;;;4.90;2.30;;;18.50;75.50;;;;;;5057178;28;20518;-84
2023/05/24 01:48:41;;;;;;;6.10;2.30;;;18.40;75.50;;;;;;5040528;28;20401;-84
2023/05/24 01:51:11;;;;;;;4.30;2.30;;;18.40;75.60;;;;;;5024501;28;20524;-83
2023/05/24 01:53:45;;;;;;;7.03;2.60;;;18.40;75.70;;;;;;5040385;28;20417;-83
2023/05/24 01:56:12;;;;;;;5.83;2.07;;;18.40;75.70;;;;;;5074650;28;20490;-84
2023/05/24 01:58:42;;;;;;;4.63;2.20;;;18.40;75.70;;;;;;5056808;28;20905;-84
2023/05/24 02:01:13;;;;;;;3.77;1.90;;;18.30;75.60;;;;;;5041207;28;20721;-83
2023/05/24 02:03:40;;;;;;;4.30;1.90;;;18.30;75.60;;;;;;5056735;28;20445;-83
2023/05/24 02:06:07;;;;;;;11.03;2.57;;;18.30;75.50;;;;;;5024026;28;20437;-83
2023/05/24 02:08:35;;;;;;;7.07;2.13;;;18.30;75.60;;;;;;5056793;28;20481;-84
2023/05/24 02:11:01;;;;;;;4.30;2.43;;;18.30;75.70;;;;;;5056879;28;20887;-84
2023/05/24 02:13:27;;;;;;;6.40;2.60;;;18.30;75.80;;;;;;5056951;28;20459;-84
2023/05/24 02:15:53;;;;;;;5.00;2.03;;;18.30;75.80;;;;;;5039907;28;20515;-83
2023/05/24 02:18:24;;;;;;;4.37;2.67;;;18.20;75.70;;;;;;5056960;28;20418;-83
2023/05/24 02:20:54;;;;;;;7.70;2.57;;;18.20;75.60;;;;;;5073505;28;20797;-83
2023/05/24 02:23:24;;;;;;;6.50;2.20;;;18.20;75.60;;;;;;5040487;28;20456;-83
2023/05/24 02:25:50;;;;;;;4.70;1.83;;;18.20;75.60;;;;;;5056653;28;20747;-83
2023/05/24 02:28:17;;;;;;;5.27;1.90;;;18.20;75.60;;;;;;5060204;28;20727;-84
2023/05/24 02:30:46;;;;;;;5.40;2.43;;;18.20;75.70;;;;;;5040312;28;20461;-82
2023/05/24 02:33:14;;;;;;;5.37;1.90;;;18.10;75.70;;;;;;5040355;28;20410;-84
2023/05/24 02:35:42;;;;;;;4.40;2.40;;;18.10;75.70;;;;;;5040217;28;20437;-84
2023/05/24 02:38:11;;;;;;;3.83;2.43;;;18.10;75.80;;;;;;5056900;28;20430;-84
2023/05/24 02:40:39;;;;;;;3.70;2.07;;;18.10;75.80;;;;;;5020383;28;20548;-85
2023/05/24 02:43:09;;;;;;;3.93;1.90;;;18.10;75.80;;;;;;5036564;28;20451;-84
2023/05/24 02:45:36;;;;;;;7.83;2.13;;;18.10;75.60;;;;;;5020446;28;20790;-84
2023/05/24 02:48:02;;;;;;;4.07;1.90;;;18.00;75.60;;;;;;5003985;28;20575;-84
2023/05/24 02:50:28;;;;;;;5.70;1.97;;;18.00;75.70;;;;;;5020268;28;20471;-83
2023/05/24 02:52:59;;;;;;;3.77;2.10;;;18.00;75.70;;;;;;4988796;28;20459;-84
2023/05/24 02:55:31;;;;;;;3.23;2.70;;;18.00;75.70;;;;;;5020538;28;20402;-83
2023/05/24 02:58:02;;;;;;;6.30;2.50;;;18.00;76.50;;;;;;5033380;28;20431;-83
2023/05/24 03:00:29;;;;;;;4.27;2.17;;;18.00;75.80;;;;;;5059673;28;20531;-83
2023/05/24 03:03:01;;;;;;;7.00;2.33;;;17.90;75.70;;;;;;5059953;28;20536;-83
2023/05/24 03:05:28;;;;;;;3.37;2.20;;;17.90;75.70;;;;;;5042992;28;20436;-83
2023/05/24 03:07:53;;;;;;;3.63;2.10;;;17.90;75.70;;;;;;5059833;28;20511;-83
2023/05/24 03:10:19;;;;;;;5.03;1.90;;;17.90;75.70;;;;;;5059413;28;20249;-83
2023/05/24 03:12:48;;;;;;;7.70;3.73;;;17.90;75.70;;;;;;5059514;28;20556;-84
2023/05/24 03:15:16;;;;;;;2.27;2.00;;;17.90;75.80;;;;;;5059705;28;20508;-83
2023/05/24 03:17:42;;;;;;;4.00;2.20;;;17.80;75.70;;;;;;5059671;28;20453;-83
2023/05/24 03:20:10;;;;;;;4.10;2.67;;;17.80;75.70;;;;;;5059482;28;20450;-83
2023/05/24 03:22:36;;;;;;;5.43;1.93;;;17.80;75.70;;;;;;5026642;28;20608;-84
2023/05/24 03:25:07;;;;;;;6.03;2.43;;;17.80;75.70;;;;;;5042970;28;20445;-83
2023/05/24 03:27:34;;;;;;;6.30;2.40;;;17.80;75.80;;;;;;5042716;28;20891;-83
2023/05/24 03:30:01;;;;;;;3.50;2.03;;;17.70;75.80;;;;;;5059251;28;20472;-83
2023/05/24 03:32:30;;;;;;;5.57;1.90;;;17.70;75.70;;;;;;5059046;28;20418;-83
2023/05/24 03:35:00;;;;;;;3.87;2.00;;;17.70;75.80;;;;;;5042804;28;20434;-83
2023/05/24 03:37:27;;;;;;;4.10;2.10;;;17.70;75.80;;;;;;5058471;28;20483;-83
2023/05/24 03:39:53;;;;;;;6.57;2.93;;;17.70;75.80;;;;;;5025826;28;20450;-84
2023/05/24 03:42:33;;;;;;;4.97;2.50;;;17.70;75.80;;;;;;5076572;28;20714;-83
2023/05/24 03:45:01;;;;;;;3.73;2.03;;;17.60;75.80;;;;;;5042797;28;20432;-83
2023/05/24 03:47:29;;;;;;;5.80;2.83;;;17.60;75.80;;;;;;5059407;28;20431;-84
2023/05/24 03:49:58;;;;;;;5.00;2.00;;;17.60;75.80;;;;;;5042433;28;20485;-83
2023/05/24 03:52:26;;;;;;;3.67;2.50;;;17.60;75.90;;;;;;5058971;28;20420;-84
2023/05/24 03:54:57;;;;;;;3.97;2.00;;;17.60;76.10;;;;;;5042716;28;20421;-83
2023/05/24 03:57:25;;;;;;;4.63;1.80;;;17.60;76.00;;;;;;5042441;28;20474;-84
2023/05/24 03:59:52;;;;;;;3.50;1.73;;;17.50;75.80;;;;;;5059010;28;20421;-84
2023/05/24 04:02:18;;;;;;;2.30;1.70;;;17.50;75.80;;;;;;5025884;28;20445;-84
2023/05/24 04:04:44;;;;;;;4.83;2.40;;;17.50;75.90;;;;;;5042104;28;20453;-84
2023/05/24 04:07:14;;;;;;;3.23;2.10;;;17.50;76.00;;;;;;5026195;28;20509;-84
2023/05/24 04:09:40;;;;;;;5.00;2.00;;;17.50;75.90;;;;;;5041876;28;20565;-83
2023/05/24 04:12:08;;;;;;;2.77;2.20;;;17.50;76.00;;;;;;5041913;28;20515;-83
2023/05/24 04:14:34;;;;;;;2.50;2.10;;;17.40;75.90;;;;;;5058554;28;20441;-84
2023/05/24 04:17:04;;;;;;;4.93;2.10;;;17.40;76.10;;;;;;5042230;28;20396;-83
2023/05/24 04:19:32;;;;;;;3.50;2.00;;;17.40;76.10;;;;;;5041944;28;20433;-84
2023/05/24 04:22:01;;;;;;;6.33;2.10;;;17.40;76.10;;;;;;5058620;28;20503;-83
2023/05/24 04:24:30;;;;;;;3.40;1.90;;;17.40;76.20;;;;;;5041982;28;20462;-84
2023/05/24 04:26:57;;;;;;;3.90;2.10;;;17.40;76.20;;;;;;5058478;28;20500;-83
2023/05/24 04:29:25;;;;;;;4.00;1.77;;;17.30;76.20;;;;;;5058366;28;20189;-83
2023/05/24 04:31:51;;;;;;;4.63;2.17;;;17.30;76.30;;;;;;5058227;28;20503;-83
2023/05/24 04:34:21;;;;;;;8.10;2.47;;;17.30;76.30;;;;;;5025059;28;20549;-84
2023/05/24 04:36:49;;;;;;;4.43;2.30;;;17.30;76.40;;;;;;5025176;28;20417;-83
2023/05/24 04:39:17;;;;;;;4.10;2.20;;;17.30;76.50;;;;;;5041392;28;20430;-84
2023/05/24 04:41:54;;;;;;;5.13;2.57;;;17.30;76.50;;;;;;5058032;28;20415;-84
2023/05/24 04:44:19;;;;;;;4.13;1.87;;;17.20;76.40;;;;;;5041348;28;20768;-83
2023/05/24 04:46:48;;;;;;;4.93;2.10;;;17.20;76.50;;;;;;5057683;28;20453;-83
2023/05/24 04:49:16;;;;;;;4.63;2.07;;;17.20;77.40;;;;;;5057386;28;20855;-83
2023/05/24 04:51:42;;;;;;;3.13;2.20;;;17.20;76.60;;;;;;5025152;28;20426;-83
2023/05/24 04:54:08;;;;;;;4.00;1.60;;;17.20;76.60;;;;;;5057811;28;20482;-84
2023/05/24 04:56:38;;;;;;;3.20;1.80;;;17.20;76.70;;;;;;5057677;28;20428;-83
2023/05/24 04:59:08;;;;;;;5.10;2.50;;;17.20;76.80;;;;;;5075035;28;20843;-84
2023/05/24 05:01:36;;;;;;;4.40;2.30;;;17.10;76.60;;;;;;5041113;28;20423;-84
2023/05/24 05:04:06;;;;;;;5.63;2.10;;;17.10;76.70;;;;;;5057627;28;20402;-84
2023/05/24 05:06:33;;;;;;;2.73;1.60;;;17.10;76.80;;;;;;5057690;28;20403;-84
2023/05/24 05:08:59;;;;;;;4.47;2.13;;;17.10;76.90;;;;;;5074840;28;20500;-84
2023/05/24 05:11:27;;;;;;;3.67;1.83;;;17.10;76.90;;;;;;5057433;28;20885;-84
2023/05/24 05:13:53;;;;;;;4.17;1.90;;;17.10;77.00;;;;;;5057584;28;20816;-84
2023/05/24 05:16:21;;;;;;;3.40;2.07;;;17.10;77.10;;;;;;5057380;28;20452;-84
2023/05/24 05:18:52;;;;;;;6.43;2.23;;;17.10;77.10;;;;;;5024436;28;20438;-84
2023/05/24 05:21:20;;;;;;;5.80;2.70;;;17.10;77.20;;;;;;5057401;28;20428;-83
2023/05/24 05:23:46;;;;;;;5.67;2.43;;;17.00;77.10;;;;;;5057269;28;20450;-83
2023/05/24 05:26:14;;;;;;;4.33;2.17;;;17.00;77.20;;;;;;5074779;28;20410;-84
2023/05/24 05:28:40;;;;;;;3.40;2.13;;;17.00;77.30;;;;;;5024529;28;20753;-83
2023/05/24 05:31:11;;;;;;;6.63;2.10;;;17.00;77.30;;;;;;5073775;28;20796;-83
2023/05/24 05:33:37;;;;;;;3.27;1.83;;;17.00;77.30;;;;;;5057145;28;20449;-84
2023/05/24 05:36:05;;;;;;;5.57;2.30;;;17.00;77.40;;;;;;5057393;28;20536;-83
2023/05/24 05:38:35;;;;;;;5.50;2.57;;;17.00;77.50;;;;;;5057253;28;20410;-83
2023/05/24 05:41:01;;;;;;;4.10;2.37;;;17.00;77.50;;;;;;5057125;28;20414;-84
2023/05/24 05:43:30;;;;;;;6.07;2.50;;;17.00;77.60;;;;;;5074458;28;20885;-83
2023/05/24 05:45:56;;;;;;;3.83;2.23;;;16.90;77.60;;;;;;5041595;28;20192;-83
2023/05/24 05:48:24;;;;;;;2.87;2.10;;;16.90;77.60;;;;;;5040901;28;20499;-84
2023/05/24 05:50:52;;;;;;;4.93;2.43;;;17.00;77.90;;;;;;5040470;28;20458;-84
2023/05/24 05:53:18;;;;;;;6.97;3.30;;;16.90;77.80;;;;;;5040495;28;20412;-84
2023/05/24 05:55:44;;;;;;;5.33;2.37;;;16.90;77.90;;;;;;5057109;28;20178;-84
2023/05/24 05:58:10;;;;;;;5.97;2.47;;;16.90;78.00;;;;;;5056867;28;20442;-84
2023/05/24 06:00:39;;;;;;;4.47;2.00;;;16.90;78.20;;;;;;5024446;28;20304;-84
2023/05/24 06:03:07;;;;;;;5.73;2.40;;;16.90;79.10;;;;;;5045072;28;20494;-84
2023/05/24 06:05:33;;;;;;;6.00;2.40;;;16.90;78.40;;;;;;5060982;28;20505;-84
2023/05/24 06:08:02;;;;;;;4.30;2.80;;;16.90;78.50;;;;;;5077624;28;20454;-84
2023/05/24 06:10:27;;;;;;;5.93;2.60;;;16.90;78.50;;;;;;5060809;28;20466;-84
2023/05/24 06:12:56;;;;;;;6.50;2.63;;;16.90;78.60;;;;;;5044774;28;20462;-84
2023/05/24 06:15:23;;;;;;;3.80;2.20;;;16.90;78.70;;;;;;5044651;28;20480;-84
2023/05/24 06:17:50;;;;;;;5.00;2.70;;;16.90;78.90;;;;;;5044178;28;20478;-84
2023/05/24 06:20:16;;;;;;;5.80;2.60;;;16.90;79.00;;;;;;5078122;28;20448;-84
2023/05/24 06:22:43;;;;;;;3.70;2.53;;;16.90;79.00;;;;;;5044121;28;20435;-84
2023/05/24 06:25:14;;;;;;;7.50;2.90;;;16.90;79.10;;;;;;5060725;28;20429;-84
2023/05/24 06:27:45;;;;;;;5.63;2.50;;;16.80;79.10;;;;;;5005850;28;20470;-84
2023/05/24 06:30:13;;;;;;;4.00;2.53;;;16.80;80.00;;;;;;5019511;28;20463;-84
2023/05/24 06:32:41;;;;;;;6.07;2.57;;;16.80;79.30;;;;;;5023082;28;20434;-84
2023/05/24 06:35:10;;;;;;;5.70;2.50;;;16.80;79.40;;;;;;5040713;28;20485;-84
2023/05/24 06:37:41;;;;;;;6.70;2.83;;;16.80;79.50;;;;;;5041695;28;20454;-83
2023/05/24 06:40:10;;;;;;;5.47;2.60;;;16.80;79.60;;;;;;5040539;28;20436;-83
2023/05/24 06:42:38;;;;;;;9.10;3.30;;;16.80;79.60;;;;;;5040382;28;20427;-84
2023/05/24 06:45:05;;;;;;;6.47;2.50;;;16.80;79.70;;;;;;5056981;28;20402;-85
2023/05/24 06:47:38;;;;;;;4.67;2.50;;;16.80;79.80;;;;;;5040407;28;20432;-84
2023/05/24 06:50:07;;;;;;;10.30;2.93;;;16.80;80.00;;;;;;5040474;28;20474;-83
2023/05/24 06:52:36;;;;;;;8.37;4.07;;;16.80;80.00;;;;;;5040070;28;20462;-83
2023/05/24 06:55:01;;;;;;;8.10;3.53;;;16.80;80.00;;;;;;5057604;28;20411;-83
2023/05/24 06:57:30;;;;;;;7.63;3.17;;;16.80;80.20;;;;;;5050244;28;20436;-84
2023/05/24 06:59:56;;;;;;;7.90;3.50;;;16.80;80.20;;;;;;5040043;28;20468;-84
2023/05/24 07:02:26;;;;;;;7.37;3.20;;;16.80;80.30;;;;;;5023576;28;20539;-84
2023/05/24 07:04:52;;;;;;;9.13;3.23;;;16.80;80.30;;;;;;5023579;28;20428;-83
2023/05/24 07:07:19;;;;;;;5.10;3.53;;;16.80;80.30;;;;;;5040042;28;20420;-83
2023/05/24 07:09:47;;;;;;;9.00;4.20;;;16.80;80.30;;;;;;5007051;28;20525;-83
2023/05/24 07:12:13;;;;;;;11.10;4.87;;;16.80;80.40;;;;;;5039493;28;20442;-83
2023/05/24 07:14:41;;;;;;;7.10;3.80;;;16.80;80.50;;;;;;5039546;28;20465;-84
2023/05/24 07:17:07;;;;;;;11.57;4.10;;;16.80;80.50;;;;;;5023269;28;20783;-84
2023/05/24 07:19:38;;;;;;;8.47;4.10;;;16.90;80.70;;;;;;5039957;28;20929;-83
2023/05/24 07:22:04;;;;;;;11.40;4.73;;;16.80;80.60;;;;;;5006915;28;20466;-83
2023/05/24 07:24:32;;;;;;;9.57;3.33;;;16.80;80.70;;;;;;5057453;28;20420;-83
2023/05/24 07:26:58;;;;;;;8.73;4.07;;;16.80;80.70;;;;;;5029197;28;20448;-84
2023/05/24 07:29:24;;;;;;;7.60;3.37;;;16.80;80.70;;;;;;5077044;28;20447;-84
2023/05/24 07:31:54;;;;;;;11.03;6.20;;;16.80;80.80;;;;;;5042952;28;20521;-84
2023/05/24 07:34:21;;;;;;;12.63;4.50;;;16.80;80.80;;;;;;5059261;28;20442;-83
2023/05/24 07:36:49;;;;;;;6.63;3.90;;;16.80;80.80;;;;;;5076629;28;20432;-83
2023/05/24 07:39:15;;;;;;;5.93;3.90;;;16.80;80.80;;;;;;5026182;28;20429;-84
2023/05/24 07:41:44;;;;;;;5.83;3.57;;;16.80;81.20;;;;;;5059307;28;20579;-84
2023/05/24 07:44:12;;;;;;;9.47;4.30;;;16.80;80.90;;;;;;5059188;28;20485;-84
2023/05/24 07:46:38;;;;;;;10.67;4.70;;;16.80;80.90;;;;;;5076456;28;20533;-83
2023/05/24 07:49:04;;;;;;;6.77;4.40;;;16.80;80.90;;;;;;5059020;28;20511;-83
2023/05/24 07:51:32;;;;;;;10.47;5.13;;;16.80;81.00;;;;;;5042382;28;20456;-83
2023/05/24 07:53:59;;;;;;;6.73;3.90;;;16.90;81.00;;;;;;5042577;28;20446;-84
2023/05/24 07:56:25;;;;;;;9.50;5.00;;;16.80;81.00;;;;;;5058981;28;20421;-84
2023/05/24 07:58:58;;;;;;;7.90;4.00;;;16.80;81.00;;;;;;5076529;28;20523;-83
2023/05/24 08:01:24;;;;;;;10.33;4.53;;;16.80;81.00;;;;;;5058992;28;20764;-84
2023/05/24 08:03:52;;;;;;;11.03;5.10;;;16.90;81.10;;;;;;5058985;28;20470;-83
2023/05/24 08:06:20;;;;;;;11.80;4.23;;;16.90;81.20;;;;;;5042397;28;20444;-83
2023/05/24 08:08:49;;;;;;;10.77;5.00;;;16.90;81.30;;;;;;5042688;28;20275;-84
2023/05/24 08:11:15;;;;;;;9.70;5.30;;;16.90;81.20;;;;;;5058432;28;20784;-84
2023/05/24 08:13:43;;;;;;;8.63;4.90;;;16.90;81.20;;;;;;5041982;28;20892;-84
2023/05/24 08:16:12;;;;;;;11.10;5.30;;;16.90;81.20;;;;;;5058591;28;20420;-84
2023/05/24 08:18:38;;;;;;;9.27;5.17;;;16.90;81.20;;;;;;5058278;28;20434;-84
2023/05/24 08:21:05;;;;;;;11.17;5.33;;;16.90;81.30;;;;;;5041982;28;20444;-84
2023/05/24 08:23:32;;;;;;;10.97;5.20;;;16.90;81.30;;;;;;5041229;28;20554;-84
2023/05/24 08:25:58;;;;;;;9.30;5.93;;;16.90;81.20;;;;;;5058201;28;20420;-84
2023/05/24 08:28:31;;;;;;;12.80;5.80;;;16.90;81.20;;;;;;5025675;28;20514;-83
2023/05/24 08:30:58;;;;;;;12.73;6.90;;;16.90;81.30;;;;;;5058009;28;20483;-83
2023/05/24 08:33:31;;;;;;;9.90;5.80;;;16.90;81.20;;;;;;5041932;28;20423;-84
2023/05/24 08:35:57;;;;;;;10.80;5.97;;;16.90;81.20;;;;;;5075632;28;20454;-84
2023/05/24 08:38:25;;;;;;;9.80;5.90;;;16.90;81.20;;;;;;5041703;28;20437;-83
2023/05/24 08:40:51;;;;;;;10.87;5.93;;;16.90;81.10;;;;;;5041281;28;20755;-83
2023/05/24 08:43:18;;;;;;;11.07;5.70;;;16.90;81.20;;;;;;5005569;28;20558;-84
2023/05/24 08:45:44;;;;;;;12.27;6.77;;;16.90;81.10;;;;;;5021789;28;20432;-83
2023/05/24 08:48:13;;;;;;;12.90;6.50;;;16.90;81.10;;;;;;5055412;28;20443;-83
2023/05/24 08:50:41;;;;;;;9.00;5.63;;;16.90;81.10;;;;;;5021632;28;20769;-84
2023/05/24 08:53:08;;;;;;;12.17;6.50;;;17.00;81.20;;;;;;5021688;28;20435;-85
2023/05/24 08:55:35;;;;;;;12.80;7.13;;;17.00;81.20;;;;;;5005101;28;20465;-84
2023/05/24 08:58:01;;;;;;;9.63;5.67;;;17.00;81.10;;;;;;5049099;28;20438;-84
2023/05/24 09:00:27;;;;;;;9.40;4.80;;;17.00;81.10;;;;;;5024831;28;20822;-83
2023/05/24 09:02:57;;;;;;;10.87;5.77;;;17.00;81.10;;;;;;5041317;28;20426;-83
2023/05/24 09:05:24;;;;;;;13.23;6.30;;;17.00;81.10;;;;;;5024399;28;20442;-84
2023/05/24 09:07:58;;;;;;;11.77;5.80;;;17.00;81.00;;;;;;5057961;28;20438;-83
2023/05/24 09:10:28;;;;;;;15.10;5.73;;;17.00;81.00;;;;;;5075039;28;20451;-84
2023/05/24 09:13:00;;;;;;;11.10;5.90;;;17.00;80.90;;;;;;5040821;28;20481;-84
2023/05/24 09:15:25;;;;;;;9.97;5.40;;;17.00;80.90;;;;;;5057552;28;20419;-84
2023/05/24 09:17:54;;;;;;;11.77;5.00;;;17.00;80.90;;;;;;5040916;28;20483;-84
2023/05/24 09:20:20;;;;;;;12.73;6.03;;;17.00;80.90;;;;;;5040836;28;20485;-84
2023/05/24 09:22:51;;;;;;;9.40;5.60;;;17.00;81.60;;;;;;5024714;28;20449;-84
2023/05/24 09:25:19;;;;;;;11.47;6.30;;;17.10;80.90;;;;;;5057252;28;20503;-84
2023/05/24 09:27:52;;;;;;;14.73;5.67;;;17.10;80.90;;;;;;5041271;28;20438;-84
2023/05/24 09:30:20;;;;;;;9.43;6.10;;;17.10;80.90;;;;;;5057393;28;20807;-84
2023/05/24 09:33:00;;;;;;;11.00;5.57;;;17.10;80.90;;;;;;5057214;28;20509;-84
2023/05/24 09:35:27;;;;;;;9.03;5.70;;;17.10;80.80;;;;;;5040850;28;20429;-86
2023/05/24 09:37:58;;;;;;;11.03;6.70;;;17.10;80.70;;;;;;5057797;28;20418;-84
2023/05/24 09:40:25;;;;;;;11.57;5.43;;;17.10;80.70;;;;;;5057281;28;20410;-84
2023/05/24 09:43:06;;;;;;;7.90;5.63;;;17.20;80.70;;;;;;5056930;28;20432;-84
2023/05/24 09:45:32;;;;;;;10.83;5.10;;;17.20;80.60;;;;;;5057038;28;20484;-84
2023/05/24 09:47:58;;;;;;;10.30;5.27;;;17.20;80.60;;;;;;5074650;28;20423;-83
2023/05/24 09:50:26;;;;;;;7.90;5.10;;;17.20;80.70;;;;;;5056829;28;20470;-83
2023/05/24 09:52:53;;;;;;;11.67;5.40;;;17.20;80.60;;;;;;5074617;28;20827;-83
2023/05/24 09:55:19;;;;;;;9.97;5.63;;;17.20;80.50;;;;;;5057057;28;20783;-84
2023/05/24 09:58:03;;;;;;;8.80;6.00;;;17.20;80.50;;;;;;5065043;28;20445;-84
2023/05/24 10:00:32;;;;;;;9.80;5.67;;;17.20;80.20;;;;;;5054693;28;20408;-84
2023/05/24 10:03:02;;;;;;;8.10;5.70;;;17.30;80.30;;;;;;5036978;28;20444;-83
2023/05/24 10:05:33;;;;;;;11.97;5.83;;;17.30;80.40;;;;;;5037307;28;20444;-85
2023/05/24 10:08:00;;;;;;;6.53;4.53;;;17.30;80.30;;;;;;5020584;28;20441;-83
2023/05/24 10:10:28;;;;;;;9.57;5.80;;;17.30;80.20;;;;;;5037137;28;20553;-84
2023/05/24 10:12:58;;;;;;;12.77;5.87;;;17.30;80.10;;;;;;5004349;28;20524;-85
2023/05/24 10:15:27;;;;;;;6.33;4.50;;;17.40;80.10;;;;;;5004876;28;20419;-85
2023/05/24 10:17:57;;;;;;;11.23;5.27;;;17.40;80.00;;;;;;5020807;28;20789;-85
2023/05/24 10:20:23;;;;;;;8.37;4.83;;;17.40;79.80;;;;;;5036934;28;20425;-84
2023/05/24 10:22:52;;;;;;;12.33;5.50;;;17.40;79.60;;;;;;5020568;28;20461;-84
2023/05/24 10:25:26;;;;;;;10.13;5.30;;;17.40;79.60;;;;;;5037147;28;20481;-85
2023/05/24 10:27:56;;;;;;;10.17;4.97;;;17.50;79.60;;;;;;5004465;28;20419;-83
2023/05/24 10:30:50;;;;;;;6.97;4.40;;;17.50;79.50;;;;;;5003952;28;20461;-84
2023/05/24 10:33:18;;;;;;;7.20;4.70;;;17.50;79.60;;;;;;5036807;28;20403;-85
2023/05/24 10:35:45;;;;;;;10.73;4.47;;;17.50;79.40;;;;;;5020144;28;20452;-85
2023/05/24 10:38:10;;;;;;;7.30;4.63;;;17.50;79.40;;;;;;5004073;28;20434;-84
2023/05/24 10:40:43;;;;;;;9.90;5.40;;;17.50;79.30;;;;;;5036571;28;20441;-85
2023/05/24 10:43:11;;;;;;;7.70;4.43;;;17.50;79.00;;;;;;5020214;28;20483;-84
2023/05/24 10:45:39;;;;;;;8.13;4.87;;;17.50;79.10;;;;;;5020275;28;20490;-85
2023/05/24 10:48:17;;;;;;;9.23;4.60;;;17.50;79.10;;;;;;5022040;28;20436;-84
2023/05/24 10:50:46;;;;;;;8.27;4.50;;;17.60;79.20;;;;;;5040278;28;20563;-84
2023/05/24 10:53:21;;;;;;;7.20;4.37;;;17.60;79.20;;;;;;5040130;28;20444;-85
2023/05/24 10:55:57;;;;;;;6.97;4.70;;;17.60;79.20;;;;;;5023901;28;20448;-85
2023/05/24 10:58:44;;;;;;;9.00;4.60;;;17.60;79.10;;;;;;5006823;28;20440;-84
2023/05/24 11:01:34;;;;;;;6.13;3.87;;;17.60;79.00;;;;;;5041266;28;20691;-84
2023/05/24 11:04:11;;;;;;;7.83;4.60;;;17.60;79.10;;;;;;5040020;28;20426;-85
2023/05/24 11:07:01;;;;;;;9.47;4.63;;;17.70;79.10;;;;;;5007011;28;20456;-84
2023/05/24 11:09:28;;;;;;;6.80;4.00;;;17.70;78.50;;;;;;5007203;28;20851;-83
2023/05/24 11:11:59;;;;;;;7.20;4.37;;;17.70;78.10;;;;;;5039767;28;20447;-84
2023/05/24 11:14:28;;;;;;;11.77;4.33;;;17.70;78.00;;;;;;5023763;28;20424;-84
2023/05/24 11:16:54;;;;;;;10.07;4.10;;;17.70;77.60;;;;;;5039845;28;20426;-84
2023/05/24 11:19:36;;;;;;;9.50;4.63;;;17.70;77.70;;;;;;5039560;28;20902;-83
2023/05/24 11:22:06;;;;;;;9.13;3.70;;;17.70;77.80;;;;;;5039823;28;20418;-84
2023/05/24 11:24:33;;;;;;;6.10;3.70;;;17.80;77.70;;;;;;5039696;28;20440;-84
2023/05/24 11:27:02;;;;;;;9.73;4.60;;;17.80;77.90;;;;;;5026089;28;20530;-84
2023/05/24 11:29:29;;;;;;;7.80;4.03;;;17.80;78.00;;;;;;5059302;28;20506;-84
2023/05/24 11:32:03;;;;;;;8.63;3.97;;;17.80;78.10;;;;;;5042933;28;20414;-84
2023/05/24 11:34:30;;;;;;;8.03;4.13;;;17.80;78.20;;;;;;5059607;28;20497;-84
2023/05/24 11:37:09;;;;;;;5.60;4.17;;;17.80;78.20;;;;;;5059426;28;20452;-84
2023/05/24 11:39:36;;;;;;;7.03;4.57;;;17.80;78.20;;;;;;5026432;28;20493;-83
2023/05/24 11:42:07;;;;;;;6.40;3.97;;;17.80;78.30;;;;;;5042511;28;20921;-83
2023/05/24 11:44:39;;;;;;;7.57;4.40;;;17.80;78.30;;;;;;5042588;28;20527;-84
2023/05/24 11:47:10;;;;;;;10.07;3.50;;;17.90;78.60;;;;;;5059600;28;20424;-84
2023/05/24 11:49:41;;;;;;;7.47;4.17;;;17.80;78.50;;;;;;5059142;28;20472;-84
2023/05/24 11:52:07;;;;;;;8.77;4.00;;;17.80;78.40;;;;;;5042589;28;20432;-84
2023/05/24 11:54:34;;;;;;;7.30;4.00;;;17.80;78.40;;;;;;5059134;28;20437;-85
2023/05/24 11:57:00;;;;;;;7.03;3.80;;;17.80;78.40;;;;;;5042572;28;20438;-84
2023/05/24 11:59:28;;;;;;;5.60;4.23;;;17.80;78.50;;;;;;5057935;28;20429;-83
2023/05/24 12:01:58;;;;;;;6.57;3.50;;;17.80;78.50;;;;;;5076250;28;20443;-83
2023/05/24 12:04:25;;;;;;;7.67;4.00;;;17.90;78.40;;;;;;5042402;28;20410;-84
2023/05/24 12:06:51;;;;;;;4.70;3.27;;;17.90;78.10;;;;;;5025825;28;20425;-84
2023/05/24 12:09:17;;;;;;;6.10;3.90;;;17.90;78.80;;;;;;5040766;28;20433;-85
2023/05/24 12:11:48;;;;;;;7.53;4.10;;;17.90;78.00;;;;;;5006615;28;20442;-83
2023/05/24 12:14:19;;;;;;;10.00;4.00;;;17.90;78.20;;;;;;5021834;28;20457;-84
2023/05/24 12:16:48;;;;;;;6.20;3.90;;;17.90;78.30;;;;;;5022238;28;20484;-84
2023/05/24 12:19:33;;;;;;;6.50;3.77;;;17.90;78.10;;;;;;5022468;28;20930;-83
2023/05/24 12:22:07;;;;;;;6.30;3.60;;;17.90;78.00;;;;;;5021964;28;20434;-85
2023/05/24 12:24:34;;;;;;;6.33;3.70;;;17.90;78.00;;;;;;5038166;28;20883;-83
2023/05/24 12:27:06;;;;;;;7.93;4.60;;;17.90;78.00;;;;;;5022123;28;20460;-84
2023/05/24 12:29:39;;;;;;;7.00;3.90;;;17.90;78.10;;;;;;5021921;28;20469;-84
2023/05/24 12:32:11;;;;;;;8.00;4.63;;;18.00;78.30;;;;;;5055733;28;20410;-85
2023/05/24 12:34:39;;;;;;;7.90;4.43;;;18.00;78.40;;;;;;5022213;28;20902;-84
2023/05/24 12:37:07;;;;;;;7.20;4.80;;;18.00;78.40;;;;;;5055872;28;20406;-84
2023/05/24 12:39:36;;;;;;;9.93;4.10;;;18.00;78.30;;;;;;5022258;28;20538;-85
2023/05/24 12:42:03;;;;;;;6.13;4.30;;;18.00;78.00;;;;;;5038063;28;20421;-83
2023/05/24 12:44:38;;;;;;;6.17;4.47;;;18.00;78.00;;;;;;5034741;28;20900;-84
2023/05/24 12:47:06;;;;;;;7.70;3.70;;;18.00;78.00;;;;;;5018458;28;20422;-85
2023/05/24 12:49:34;;;;;;;5.70;3.93;;;18.10;78.20;;;;;;5035027;28;20458;-84
2023/05/24 12:52:03;;;;;;;5.73;4.17;;;18.00;78.00;;;;;;5001865;28;20461;-87
2023/05/24 12:54:29;;;;;;;7.73;4.33;;;18.10;78.10;;;;;;5018292;28;20428;-83
2023/05/24 12:56:58;;;;;;;7.47;4.20;;;18.10;78.10;;;;;;5035915;28;20798;-86